Pays
Station

 

Conditions  météo  pour  Pittsburgh, Pittsburgh International Airport  -  Etats-Unis    Etats-Unis

  
3 °C
    
 
 

METAR pour Pittsburgh, Pittsburgh International Airport :

KPIT 212251Z 27006KT 10SM OVC034 03/M02 A3023 RMK AO2 SLP256 T00281022 $

 

Voici le bulletin pour Pittsburgh, Pittsburgh International Airport - Etats-Unis.
 
Le bulletin a été fait il y a 23 minutes, à 22:51 UTC .
Le vent soufflait à la vitesse de 3.1 mètres par seconde de Ouest (270°).
 
La température était de 3 °C, avec un point de rosée à -2 °C.
La température ressentie était de -0 °C.
 
La pression atmosphérique était de 1024 hPa.
L'humidité relative était de 69.6%.
 
Le ciel était nuageux à partir d'une hauteur de 1036 mètres
 
La visibilité globale était de 16.1 kilomètres.
 

 
 
 

Pays :   A   B   C   D   E   F   G   H   I   J   K   L   M   N   O   P   Q   R   S   T   U   V   W   Y   Z

 

Partenaires :  Info Météo avec Met'info
Météo Marine avec MeteoMarine.net
Infos Site  |  Infos Légales  |  Crédits  |  Confidentialité
Contactez-nous  |  Ajouter aux favoris
© 2013-2018 METAR - Tous droits réservés